• Join FlightAware (Why Join?)
  • Login
  • US Flag 
11:38PM EDT


 

Airport Tracker/Info


-or-


 

Live Flight TrackerFlight Track Log ✈ CTL337 ✈ 26-Apr-2013 ✈ KBKL - KOSU

Flight Track Log - Related Links

Times and Time Zones

All times are in EDT time to prevent confusion due to time zone crossing. See the CTL337 flight status page for this flight to view local times or setup timezone preferences in your user account.

Time Position Orientation Groundspeed Altitude Reporting Facility
EDT Latitude Longitude Course Direction KTS MPH feet Rate Location/Type
10:00PM 41.5253 -81.6675 48° Northeast 110 127 1,400  Level Cleveland Center
10:00PM 41.5381 -81.6483 48° Northeast 112 129 2,300 1,320 Climbing Cleveland Center
10:01PM 41.5342 -81.6178 100° East 105 121 3,700 1,260 Climbing Cleveland Center
10:02PM 41.5092 -81.6092 166° South 101 116 4,900 1,140 Climbing Cleveland Center
10:03PM 41.4781 -81.6031 172° South 124 143 6,000 600 Climbing Cleveland Center
10:04PM 41.4383 -81.6108 188° South 162 186 6,200  Climbing Cleveland Center
10:05PM 41.3942 -81.6597 220° Southwest 179 206 6,100 -60 Descending Cleveland Center
10:07PM 41.3561 -81.7036 221° Southwest 174 200 6,100  Level Cleveland Center
10:07PM 41.3267 -81.7361 220° Southwest 175 201 6,100  Level Cleveland Center
10:08PM 41.2867 -81.7825 221° Southwest 178 205 6,100 -60 Level Cleveland Center
10:09PM 41.2467 -81.8231 217° Southwest 180 207 6,000  Descending Cleveland Center
10:10PM 41.2192 -81.8611 226° Southwest 169 194 6,100  Climbing Cleveland Center
10:11PM 41.1769 -81.8936 210° Southwest 172 198 6,100  Level Cleveland Center
10:12PM 41.1411 -81.9314 218° Southwest 178 205 6,100  Level Cleveland Center
10:14PM 41.1015 -81.9907 228° Southwest  Level FlightAware Approximate
10:16PM 40.9983 -82.0847 217° Southwest 179 206 6,100  Level Indianapolis Center
10:17PM 40.9586 -82.1233 216° Southwest 177 204 6,100  Level Indianapolis Center
10:18PM 40.9228 -82.1672 223° Southwest 175 201 6,100  Level Indianapolis Center
10:19PM 40.8853 -82.2111 222° Southwest 178 205 6,100  Level Indianapolis Center
10:20PM 40.8461 -82.2528 219° Southwest 178 205 6,100  Level Indianapolis Center
10:21PM 40.8734 -82.2935 217° Southwest  Level FlightAware Approximate
10:21PM 40.8081 -82.2953 220° Southwest 178 205 6,100  Level Indianapolis Center
10:22PM 40.7689 -82.3369 219° Southwest 178 205 5,900 -60 Descending Indianapolis Center
10:23PM 40.7314 -82.3808 222° Southwest 178 205 6,000  Climbing Indianapolis Center
10:24PM 40.6947 -82.4250 222° Southwest 178 205 6,000  Level Indianapolis Center
10:25PM 40.6561 -82.4669 219° Southwest 178 205 6,000 -60 Level Indianapolis Center
10:26PM 40.6181 -82.5097 220° Southwest 178 205 5,900  Descending Indianapolis Center
10:27PM 40.5808 -82.5517 221° Southwest 175 201 6,000  Climbing Indianapolis Center
10:28PM 40.5439 -82.5939 221° Southwest 174 200 6,000  Level Indianapolis Center
10:29PM 40.5053 -82.6361 220° Southwest 177 204 6,000  Level Indianapolis Center
10:30PM 40.4814 -82.6611 219° Southwest 177 204 6,000  Level Indianapolis Center
10:30PM 40.4653 -82.6761 215° Southwest 179 206 6,000  Level Indianapolis Center
10:31PM 40.4433 -82.7006 220° Southwest 178 205 6,000  Level Indianapolis Center
10:31PM 40.4264 -82.7156 214° Southwest 175 201 6,000  Level Indianapolis Center
10:32PM 40.4028 -82.7453 224° Southwest 186 214 6,000 -120 Level Indianapolis Center
10:32PM 40.3881 -82.7581 213° Southwest 177 204 5,900 -360 Descending Indianapolis Center
10:33PM 40.3692 -82.7797 221° Southwest 179 206 5,700 -540 Descending Indianapolis Center
10:33PM 40.3483 -82.8014 218° Southwest 183 211 5,400 -420 Descending Indianapolis Center
10:34PM 40.3261 -82.8269 221° Southwest 187 215 5,300 -540 Descending Indianapolis Center
10:34PM 40.3025 -82.8481 214° Southwest 184 212 4,900 -720 Descending Indianapolis Center
10:35PM 40.2858 -82.8661 220° Southwest 183 211 4,600 -840 Descending Indianapolis Center
10:35PM 40.2622 -82.8883 216° Southwest 184 212 4,100 -840 Descending Indianapolis Center
10:36PM 40.2456 -82.9053 218° Southwest 177 204 3,800 -840 Descending Indianapolis Center
10:36PM 40.2253 -82.9294 222° Southwest 177 204 3,300 -720 Descending Indianapolis Center
10:37PM 40.2150 -82.9564 243° Southwest 171 197 3,000 -300 Descending Indianapolis Center
10:37PM 40.2042 -82.9869 245° Southwest 176 203 3,000  Level Indianapolis Center
10:38PM 40.1919 -83.0164 241° Southwest 164 189 3,000 60 Level Indianapolis Center
10:38PM 40.1839 -83.0397 246° West 168 193 3,100 -300 Climbing Indianapolis Center
10:39PM 40.1719 -83.0658 239° Southwest 157 181 2,700 -1,140 Descending Indianapolis Center
10:39PM 40.1544 -83.0828 217° Southwest 162 186 2,000 -900 Descending Indianapolis Center
10:40PM 40.1322 -83.0967 206° Southwest 161 185 1,800 -420 Descending Indianapolis Center
10:40PM 40.1144 -83.0986 185° South 155 178 1,600 -420 Descending Indianapolis Center
10:41PM 40.1006 -83.0986 180° South 99 114 1,400 -300 Descending Indianapolis Center
10:41PM 40.0869 -83.0953 169° South 119 137 1,300 -300 Descending Indianapolis Center
10:42PM 40.0647 -83.0842 159° South 104 120 1,000 -300 Descending Indianapolis Center
10:44PM 40.0667 -83.0667 37° Northeast  Level FlightAware Approximate